Time;durP1;ratioP1;P1;durP2;ratioP2;P2;SDS_P1;SDS_P2;PMS_P1;PMS_P2;Temp;Humidity;BMP_temperature;BMP_pressure;BME280_temperature;BME280_humidity;BME280_pressure;Samples;Min_cycle;Max_cycle;Signal;HPM_P1;HPM_P2
2023/03/30 02:13:34;;;;;;;10.30;4.20;;;12.90;71.90;;;;;;6272602;22;20023;-79
2023/03/30 02:16:09;;;;;;;9.13;4.40;;;12.90;72.00;;;;;;6278779;22;20008;-78
2023/03/30 02:18:37;;;;;;;14.85;5.65;;;12.90;72.20;;;;;;6278373;22;20064;-79
2023/03/30 02:21:04;;;;;;;11.57;4.88;;;12.90;72.30;;;;;;6277805;22;20007;-78
2023/03/30 02:23:33;;;;;;;13.25;4.57;;;12.90;72.20;;;;;;6250730;22;20008;-79
2023/03/30 02:25:59;;;;;;;10.45;4.43;;;12.90;72.30;;;;;;6278146;22;20008;-78
2023/03/30 02:28:25;;;;;;;8.48;4.05;;;12.90;72.00;;;;;;6277799;22;20456;-79
2023/03/30 02:30:51;;;;;;;13.10;4.40;;;12.90;72.00;;;;;;6277778;22;20006;-78
2023/03/30 02:33:46;;;;;;;12.55;4.10;;;12.80;72.20;;;;;;6277863;22;20066;-78
2023/03/30 02:36:23;;;;;;;10.40;3.97;;;12.90;72.10;;;;;;6212576;22;20429;-78
2023/03/30 02:39:23;;;;;;;17.13;4.68;;;12.90;72.00;;;;;;6277602;22;20031;-77
2023/03/30 02:42:16;;;;;;;12.20;4.50;;;12.80;71.90;;;;;;6277682;22;20333;-78
2023/03/30 02:44:45;;;;;;;10.38;5.22;;;12.80;71.90;;;;;;6277488;22;20448;-78
2023/03/30 02:47:41;;;;;;;8.65;4.22;;;12.80;71.90;;;;;;6277557;22;20318;-78
2023/03/30 02:50:22;;;;;;;11.60;5.03;;;12.70;72.00;;;;;;6278034;22;20053;-78
2023/03/30 02:52:48;;;;;;;15.57;4.90;;;12.60;72.20;;;;;;6250260;22;20003;-78
2023/03/30 02:55:24;;;;;;;11.38;4.60;;;12.50;72.40;;;;;;6277561;22;19999;-79
2023/03/30 02:58:17;;;;;;;13.50;5.18;;;12.50;72.30;;;;;;6277202;22;20000;-77
2023/03/30 03:00:51;;;;;;;12.27;4.80;;;12.50;72.30;;;;;;6277347;22;20487;-78
2023/03/30 03:03:33;;;;;;;12.70;5.47;;;12.50;72.30;;;;;;6277487;22;20041;-78
2023/03/30 03:06:01;;;;;;;11.27;5.03;;;12.40;72.20;;;;;;6277369;22;19999;-79
2023/03/30 03:08:32;;;;;;;10.30;4.55;;;12.50;72.30;;;;;;6277048;22;20014;-77
2023/03/30 03:10:58;;;;;;;11.10;4.82;;;12.50;72.20;;;;;;6276846;22;19996;-79
2023/03/30 03:13:24;;;;;;;15.63;6.25;;;12.50;72.30;;;;;;6257611;22;20507;-78
2023/03/30 03:15:55;;;;;;;10.30;4.93;;;12.50;72.00;;;;;;6246783;23;19997;-78
2023/03/30 03:18:20;;;;;;;12.07;4.68;;;12.50;72.00;;;;;;6246506;23;20027;-78
2023/03/30 03:20:46;;;;;;;13.40;5.38;;;12.50;71.90;;;;;;6246580;23;20359;-78
2023/03/30 03:23:12;;;;;;;9.85;4.45;;;12.40;71.90;;;;;;6246712;23;20384;-77
2023/03/30 03:25:37;;;;;;;12.70;4.78;;;12.40;71.80;;;;;;6246436;23;20007;-78
2023/03/30 03:28:03;;;;;;;10.75;4.43;;;12.30;72.10;;;;;;6246639;23;20016;-77
2023/03/30 03:30:29;;;;;;;10.02;4.50;;;12.30;72.10;;;;;;6246351;23;20001;-77
2023/03/30 03:32:55;;;;;;;12.20;4.05;;;12.30;72.30;;;;;;6246746;23;20004;-78
2023/03/30 03:35:21;;;;;;;18.95;4.47;;;12.30;72.20;;;;;;6246421;23;20067;-77
2023/03/30 03:37:47;;;;;;;12.93;4.45;;;12.30;72.20;;;;;;6246715;23;20023;-79
2023/03/30 03:40:13;;;;;;;14.90;4.63;;;12.30;72.00;;;;;;6246578;23;20011;-77
2023/03/30 03:42:39;;;;;;;13.43;4.80;;;12.30;71.90;;;;;;6246387;23;20023;-78
2023/03/30 03:45:06;;;;;;;14.77;5.00;;;12.20;72.00;;;;;;6246235;23;20050;-78
2023/03/30 03:47:33;;;;;;;11.25;4.55;;;12.10;72.30;;;;;;6246000;23;20158;-77
2023/03/30 03:50:02;;;;;;;10.38;4.55;;;12.10;72.30;;;;;;6246004;23;20008;-78
2023/03/30 03:52:31;;;;;;;9.60;4.28;;;12.10;72.30;;;;;;6220327;23;20007;-79
2023/03/30 03:54:56;;;;;;;9.23;4.70;;;12.10;72.70;;;;;;6246345;23;20071;-78
2023/03/30 03:57:22;;;;;;;10.93;4.38;;;12.10;72.40;;;;;;6246257;23;20027;-78
2023/03/30 03:59:50;;;;;;;12.55;4.32;;;12.10;72.50;;;;;;6219316;23;20138;-78
2023/03/30 04:02:15;;;;;;;9.65;4.82;;;12.10;72.50;;;;;;6246348;23;20010;-78
2023/03/30 04:04:41;;;;;;;15.00;5.25;;;12.10;72.50;;;;;;6219241;23;20082;-78
2023/03/30 04:07:07;;;;;;;10.05;5.20;;;12.20;72.40;;;;;;6245884;23;20061;-78
2023/03/30 04:09:32;;;;;;;12.63;4.80;;;12.20;72.60;;;;;;6246159;23;20012;-77
2023/03/30 04:11:58;;;;;;;12.00;5.20;;;12.20;72.50;;;;;;6246031;22;20373;-79
2023/03/30 04:14:24;;;;;;;12.68;5.13;;;12.20;72.20;;;;;;6246098;23;20008;-79
2023/03/30 04:16:50;;;;;;;14.90;5.05;;;12.20;73.00;;;;;;6245923;23;20107;-79
2023/03/30 04:19:16;;;;;;;10.27;4.60;;;12.20;72.20;;;;;;6246047;23;20008;-78
2023/03/30 04:21:45;;;;;;;13.25;5.25;;;12.20;72.30;;;;;;6246054;23;20000;-79
2023/03/30 04:24:12;;;;;;;10.20;4.85;;;12.10;72.30;;;;;;6246370;23;20012;-79
2023/03/30 04:26:40;;;;;;;15.48;5.13;;;12.10;72.60;;;;;;6246057;23;20387;-79
2023/03/30 04:29:07;;;;;;;12.18;4.32;;;12.10;72.60;;;;;;6246116;23;20020;-79
2023/03/30 04:31:37;;;;;;;14.93;4.88;;;12.10;72.60;;;;;;6245564;23;20038;-78
2023/03/30 04:34:03;;;;;;;11.13;4.55;;;12.10;72.80;;;;;;6194739;23;20008;-79
2023/03/30 04:36:29;;;;;;;11.30;4.47;;;12.10;72.70;;;;;;6245785;23;20000;-78
2023/03/30 04:39:02;;;;;;;11.32;4.40;;;12.10;72.70;;;;;;6245708;23;20004;-78
2023/03/30 04:41:32;;;;;;;16.63;4.35;;;12.10;72.90;;;;;;6245711;23;20006;-78
2023/03/30 04:44:08;;;;;;;12.30;4.50;;;12.10;72.80;;;;;;6245936;23;20000;-81
2023/03/30 04:46:34;;;;;;;9.00;4.07;;;12.00;72.80;;;;;;6245777;23;20004;-79
2023/03/30 04:49:00;;;;;;;12.20;4.47;;;11.90;72.60;;;;;;6245657;23;20027;-80
2023/03/30 04:51:26;;;;;;;7.22;3.45;;;11.90;72.90;;;;;;6218903;23;20373;-78
2023/03/30 04:53:52;;;;;;;8.80;4.00;;;11.90;73.10;;;;;;6246273;23;20004;-79
2023/03/30 04:56:18;;;;;;;7.93;4.05;;;11.80;73.20;;;;;;6245788;23;20079;-79
2023/03/30 04:58:44;;;;;;;9.50;3.30;;;11.80;73.10;;;;;;6245726;23;20330;-78
2023/03/30 05:01:09;;;;;;;11.45;3.75;;;11.80;73.10;;;;;;6245879;23;20276;-79
2023/03/30 05:03:35;;;;;;;7.78;2.85;;;11.80;73.00;;;;;;6245444;23;20011;-79
2023/03/30 05:06:01;;;;;;;11.23;4.07;;;11.70;73.10;;;;;;6245252;23;20027;-79
2023/03/30 05:08:27;;;;;;;13.10;4.30;;;11.80;73.20;;;;;;6245254;23;20038;-81
2023/03/30 05:10:53;;;;;;;10.13;3.72;;;11.70;73.10;;;;;;6245761;23;20008;-79
2023/03/30 05:13:19;;;;;;;10.82;3.22;;;11.70;73.40;;;;;;6247672;22;20074;-79
2023/03/30 05:15:51;;;;;;;8.23;3.45;;;11.70;73.30;;;;;;6246060;23;20353;-79
2023/03/30 05:18:16;;;;;;;10.52;3.40;;;11.70;73.40;;;;;;6245444;23;20057;-78
2023/03/30 05:20:42;;;;;;;11.68;3.90;;;11.70;73.30;;;;;;6245193;23;20426;-79
2023/03/30 05:23:08;;;;;;;12.98;3.42;;;11.80;73.00;;;;;;6245365;23;20004;-78
2023/03/30 05:25:33;;;;;;;9.07;3.10;;;11.90;72.90;;;;;;6245493;23;20079;-79
2023/03/30 05:28:00;;;;;;;11.57;3.28;;;12.00;72.90;;;;;;6245359;23;20000;-79
2023/03/30 05:30:25;;;;;;;15.18;3.30;;;12.10;72.50;;;;;;6244841;23;20004;-79
2023/03/30 05:32:51;;;;;;;6.85;2.90;;;12.10;72.30;;;;;;6245213;23;20423;-80
2023/03/30 05:35:17;;;;;;;8.00;3.22;;;12.10;72.30;;;;;;6245143;23;20016;-81
2023/03/30 05:37:42;;;;;;;13.25;3.38;;;12.10;72.10;;;;;;6245389;23;20120;-79
2023/03/30 05:40:09;;;;;;;11.40;3.13;;;12.10;72.20;;;;;;6245400;23;20006;-78
2023/03/30 05:42:35;;;;;;;9.20;3.20;;;12.20;72.00;;;;;;6245582;23;20426;-80
2023/03/30 05:45:01;;;;;;;12.55;3.35;;;12.20;72.00;;;;;;6246300;23;20007;-81
2023/03/30 05:47:27;;;;;;;12.52;3.20;;;12.30;71.90;;;;;;6245682;23;20028;-79
2023/03/30 05:49:53;;;;;;;9.32;3.70;;;12.20;71.70;;;;;;6250315;23;20066;-85
2023/03/30 05:52:20;;;;;;;9.18;3.88;;;12.30;71.90;;;;;;6253226;23;20032;-82
2023/03/30 05:54:46;;;;;;;12.25;3.95;;;12.30;71.70;;;;;;6245496;23;20004;-80
2023/03/30 05:57:12;;;;;;;8.30;3.42;;;12.40;71.70;;;;;;6245009;23;20007;-81
2023/03/30 05:59:38;;;;;;;8.63;3.75;;;12.40;71.40;;;;;;6246928;23;20386;-85
2023/03/30 06:02:05;;;;;;;10.88;4.25;;;12.50;71.40;;;;;;6248836;23;20007;-84
2023/03/30 06:04:32;;;;;;;12.88;3.75;;;12.40;71.20;;;;;;6224731;23;20012;-85
2023/03/30 06:06:58;;;;;;;9.55;3.67;;;12.40;71.50;;;;;;6247565;23;19996;-85
2023/03/30 06:09:25;;;;;;;13.40;4.25;;;12.50;71.50;;;;;;6250272;23;20015;-84
2023/03/30 06:11:51;;;;;;;12.52;3.60;;;12.50;71.10;;;;;;6248144;23;20028;-84
2023/03/30 06:14:17;;;;;;;10.88;3.50;;;12.50;71.50;;;;;;6249758;22;20051;-85
2023/03/30 06:16:43;;;;;;;13.13;4.35;;;12.50;71.40;;;;;;6221491;23;20016;-85
2023/03/30 06:19:09;;;;;;;15.90;5.20;;;12.50;71.20;;;;;;6248756;23;20071;-76
2023/03/30 06:21:35;;;;;;;10.73;4.45;;;12.60;71.30;;;;;;6247010;23;20086;-80
2023/03/30 06:24:00;;;;;;;11.05;4.53;;;12.60;71.20;;;;;;6245233;23;20004;-80
2023/03/30 06:26:27;;;;;;;12.25;5.22;;;12.70;71.00;;;;;;6218805;23;20005;-80
2023/03/30 06:28:52;;;;;;;13.82;4.18;;;12.80;70.90;;;;;;6245731;23;20020;-79
2023/03/30 06:31:18;;;;;;;18.05;5.28;;;12.90;71.10;;;;;;6245745;23;20071;-80
2023/03/30 06:33:44;;;;;;;12.02;4.10;;;13.00;70.80;;;;;;6247610;23;20008;-79
2023/03/30 06:36:13;;;;;;;13.25;4.32;;;13.00;70.50;;;;;;6245138;23;20426;-79
2023/03/30 06:38:39;;;;;;;16.65;6.38;;;13.10;70.60;;;;;;6244374;23;20004;-77
2023/03/30 06:41:08;;;;;;;24.35;5.10;;;13.20;70.10;;;;;;6244373;23;20047;-80
2023/03/30 06:43:35;;;;;;;12.32;5.18;;;13.30;70.20;;;;;;6244301;23;20010;-79
2023/03/30 06:46:02;;;;;;;29.50;7.07;;;13.40;70.00;;;;;;6217546;23;20083;-77
2023/03/30 06:48:28;;;;;;;17.13;6.68;;;13.50;69.60;;;;;;6245050;23;20012;-79
2023/03/30 06:50:54;;;;;;;22.92;6.75;;;13.70;69.50;;;;;;6244567;23;20000;-79
2023/03/30 06:53:21;;;;;;;20.08;6.05;;;13.80;68.90;;;;;;6244730;23;20020;-79
2023/03/30 06:55:52;;;;;;;10.27;4.78;;;13.80;68.80;;;;;;6244841;23;20090;-77
2023/03/30 06:58:17;;;;;;;15.43;5.03;;;13.80;68.30;;;;;;6217838;23;20015;-79
2023/03/30 07:00:43;;;;;;;14.50;4.95;;;13.80;68.60;;;;;;6245307;23;20004;-79
2023/03/30 07:03:09;;;;;;;25.95;11.38;;;13.90;68.50;;;;;;6246275;23;20418;-78
2023/03/30 07:05:35;;;;;;;13.88;6.70;;;14.10;68.40;;;;;;6246426;23;19996;-78
2023/03/30 07:08:00;;;;;;;20.50;5.55;;;14.20;67.90;;;;;;6246170;23;20005;-80
2023/03/30 07:10:26;;;;;;;18.98;5.97;;;14.40;68.00;;;;;;6246372;23;20031;-79
2023/03/30 07:12:52;;;;;;;14.00;5.72;;;14.60;67.50;;;;;;6246470;22;20016;-78
2023/03/30 07:15:18;;;;;;;18.55;5.25;;;14.70;67.00;;;;;;6219722;23;20008;-79
2023/03/30 07:17:43;;;;;;;13.73;4.80;;;14.70;66.70;;;;;;6246537;23;20338;-82
2023/03/30 07:20:14;;;;;;;20.13;5.35;;;14.80;66.90;;;;;;6246628;23;20102;-79
2023/03/30 07:22:41;;;;;;;18.33;5.15;;;14.80;66.60;;;;;;6246084;23;20161;-78
2023/03/30 07:25:08;;;;;;;20.42;6.15;;;14.90;66.30;;;;;;6245441;23;20062;-77
2023/03/30 07:27:35;;;;;;;13.55;5.25;;;14.90;66.00;;;;;;6245869;23;20066;-79
2023/03/30 07:30:01;;;;;;;13.23;5.20;;;15.00;66.10;;;;;;6246066;23;20377;-77
2023/03/30 07:32:26;;;;;;;19.15;5.82;;;14.90;65.80;;;;;;6246073;23;20008;-79
2023/03/30 07:34:53;;;;;;;15.90;6.32;;;15.00;66.00;;;;;;6246139;23;20028;-80
2023/03/30 07:37:18;;;;;;;20.67;5.88;;;15.20;66.10;;;;;;6246259;23;19996;-78
2023/03/30 07:39:44;;;;;;;15.75;5.43;;;15.20;65.60;;;;;;6246289;23;20077;-77
2023/03/30 07:42:10;;;;;;;15.15;5.43;;;15.20;65.70;;;;;;6245793;23;20007;-78
2023/03/30 07:44:36;;;;;;;17.95;5.63;;;15.40;65.40;;;;;;6246045;23;20019;-78
2023/03/30 07:47:03;;;;;;;19.88;5.72;;;15.50;65.10;;;;;;6246078;23;20402;-78
2023/03/30 07:49:29;;;;;;;12.82;5.55;;;15.70;65.40;;;;;;6245755;23;20015;-78
2023/03/30 07:51:55;;;;;;;17.02;5.35;;;15.80;65.10;;;;;;6246155;23;20063;-77
2023/03/30 07:54:21;;;;;;;13.85;5.43;;;15.80;65.00;;;;;;6247906;23;20011;-77
2023/03/30 07:56:51;;;;;;;18.30;5.85;;;15.90;64.70;;;;;;6256135;23;20334;-78
2023/03/30 07:59:21;;;;;;;11.55;5.10;;;15.90;64.60;;;;;;6257228;23;20023;-80
2023/03/30 08:01:49;;;;;;;15.57;5.07;;;16.00;64.60;;;;;;6255986;23;20009;-78
2023/03/30 08:04:17;;;;;;;12.55;4.82;;;16.10;64.40;;;;;;6247527;23;20054;-79
2023/03/30 08:06:44;;;;;;;20.23;5.35;;;16.10;64.60;;;;;;6246562;23;20438;-77
2023/03/30 08:09:10;;;;;;;18.92;4.85;;;16.10;64.50;;;;;;6247967;23;20090;-78
2023/03/30 08:11:36;;;;;;;13.82;5.28;;;16.10;64.50;;;;;;6246252;23;20378;-78
2023/03/30 08:14:02;;;;;;;14.07;5.05;;;16.20;64.70;;;;;;6245926;22;20043;-79
2023/03/30 08:16:28;;;;;;;18.13;5.13;;;16.20;64.60;;;;;;6246163;23;20023;-79
2023/03/30 08:18:54;;;;;;;13.00;5.10;;;16.30;64.40;;;;;;6246136;23;20004;-81
2023/03/30 08:21:24;;;;;;;22.85;5.57;;;16.50;64.40;;;;;;6246305;23;20001;-77
2023/03/30 08:23:58;;;;;;;13.75;5.50;;;16.60;64.50;;;;;;6245992;23;20000;-78
2023/03/30 08:26:25;;;;;;;15.00;5.20;;;16.70;64.50;;;;;;6246675;23;20015;-80
2023/03/30 08:28:51;;;;;;;13.77;4.55;;;16.70;64.40;;;;;;6245469;23;20094;-82
2023/03/30 08:31:17;;;;;;;45.50;6.25;;;16.70;64.50;;;;;;6245529;23;20004;-80
2023/03/30 08:33:47;;;;;;;25.15;5.28;;;16.80;64.50;;;;;;6245753;23;20010;-81
2023/03/30 08:36:12;;;;;;;13.25;4.43;;;16.80;64.60;;;;;;6245580;23;20070;-80
2023/03/30 08:38:39;;;;;;;17.00;4.40;;;16.90;65.10;;;;;;6245191;23;20004;-80
2023/03/30 08:41:23;;;;;;;16.95;3.67;;;17.00;65.00;;;;;;6245561;23;20028;-79
2023/03/30 08:43:57;;;;;;;11.30;3.78;;;17.10;64.90;;;;;;6218392;23;20380;-80
2023/03/30 08:46:24;;;;;;;14.32;2.75;;;17.20;64.70;;;;;;6245278;23;20004;-79
2023/03/30 08:48:52;;;;;;;33.97;13.88;;;17.20;64.90;;;;;;6245434;23;20040;-82
2023/03/30 08:51:28;;;;;;;23.30;4.97;;;17.30;64.90;;;;;;6245884;23;20327;-83
2023/03/30 08:54:06;;;;;;;9.55;2.63;;;17.40;65.30;;;;;;6246839;23;20055;-82
2023/03/30 08:56:40;;;;;;;11.77;2.60;;;17.50;65.20;;;;;;6221077;23;20087;-81
2023/03/30 08:59:05;;;;;;;;;;;17.60;65.20;;;;;;6220057;23;20039;-82
2023/03/30 09:01:33;;;;;;;7.47;1.90;;;17.60;65.20;;;;;;6245355;23;19946;-83
2023/03/30 09:04:08;;;;;;;7.43;2.38;;;17.50;65.10;;;;;;6245754;23;20084;-83
2023/03/30 09:06:45;;;;;;;11.13;2.25;;;17.60;65.60;;;;;;6244900;23;20461;-80
2023/03/30 09:09:14;;;;;;;12.07;2.35;;;17.70;65.50;;;;;;6244786;23;20042;-78
2023/03/30 09:11:40;;;;;;;11.60;2.20;;;17.90;65.20;;;;;;6217522;23;20540;-82
2023/03/30 09:14:11;;;;;;;5.30;1.58;;;18.00;65.00;;;;;;6243236;22;20469;-79
2023/03/30 09:17:00;;;;;;;10.00;1.90;;;18.10;64.90;;;;;;6216932;23;20118;-81
2023/03/30 09:19:46;;;;;;;7.88;1.98;;;18.20;64.50;;;;;;6217272;23;20005;-79
2023/03/30 09:22:13;;;;;;;10.20;2.35;;;18.20;64.20;;;;;;6243512;23;20004;-79
2023/03/30 09:24:39;;;;;;;6.38;2.00;;;18.30;64.10;;;;;;6243455;23;19996;-80
2023/03/30 09:27:34;;;;;;;7.43;2.20;;;18.30;64.00;;;;;;6243658;23;20084;-79
2023/03/30 09:30:12;;;;;;;13.50;2.35;;;18.30;63.60;;;;;;6229418;23;20328;-80
2023/03/30 09:32:48;;;;;;;11.52;2.38;;;18.30;63.80;;;;;;6243834;23;20075;-80
2023/03/30 09:35:19;;;;;;;16.83;2.80;;;18.30;63.70;;;;;;6245863;23;20101;-83
2023/03/30 09:37:45;;;;;;;10.90;2.63;;;18.20;63.60;;;;;;6219737;23;20019;-81
2023/03/30 09:41:00;;;;;;;7.78;1.50;;;18.20;63.70;;;;;;6245009;23;20343;-79
2023/03/30 09:43:52;;;;;;;16.20;2.28;;;18.20;63.50;;;;;;6202026;23;20036;-77
2023/03/30 09:46:18;;;;;;;8.93;2.30;;;18.20;63.80;;;;;;6237554;23;20062;-76
2023/03/30 09:48:45;;;;;;;13.32;2.65;;;18.30;63.50;;;;;;6244684;23;20008;-75
2023/03/30 09:51:27;;;;;;;10.80;2.47;;;18.40;63.20;;;;;;6244625;23;20007;-76
2023/03/30 09:54:00;;;;;;;11.52;2.88;;;18.40;63.00;;;;;;6244672;23;20022;-76
2023/03/30 09:56:34;;;;;;;7.82;1.70;;;18.40;63.30;;;;;;6243995;23;20052;-75
2023/03/30 09:59:18;;;;;;;13.88;2.60;;;18.30;63.30;;;;;;6243739;23;20031;-76
2023/03/30 10:01:45;;;;;;;;;;;18.30;63.20;;;;;;6218184;23;20035;-77
2023/03/30 10:04:11;;;;;;;11.68;2.13;;;18.40;63.00;;;;;;6244153;23;19899;-75
2023/03/30 10:06:48;;;;;;;9.18;1.80;;;18.50;62.50;;;;;;6245277;23;20023;-78
2023/03/30 10:09:16;;;;;;;8.18;2.03;;;18.50;61.60;;;;;;6244753;23;20047;-79
2023/03/30 10:11:49;;;;;;;7.95;2.25;;;18.60;61.40;;;;;;6245531;23;20047;-77
2023/03/30 10:14:31;;;;;;;9.38;2.42;;;18.60;61.40;;;;;;6243945;22;20020;-71
2023/03/30 10:16:58;;;;;;;22.48;3.40;;;18.70;61.60;;;;;;6245747;23;20439;-78
2023/03/30 10:19:24;;;;;;;11.52;2.25;;;18.80;60.70;;;;;;6244889;23;20004;-75
2023/03/30 10:21:58;;;;;;;9.95;2.75;;;18.80;60.20;;;;;;6245435;23;20004;-77
2023/03/30 10:24:30;;;;;;;10.75;2.53;;;18.90;59.70;;;;;;6245040;23;20008;-77
2023/03/30 10:27:09;;;;;;;11.60;2.90;;;18.90;59.80;;;;;;6244573;23;20012;-77
2023/03/30 10:29:35;;;;;;;49.88;4.82;;;19.00;59.70;;;;;;6244105;23;20012;-80
2023/03/30 10:32:10;;;;;;;32.22;4.28;;;19.00;59.40;;;;;;6217848;23;20009;-76
2023/03/30 10:34:39;;;;;;;9.82;2.58;;;19.10;59.50;;;;;;6244446;23;20138;-76
2023/03/30 10:37:34;;;;;;;10.50;2.50;;;19.00;59.30;;;;;;6246503;23;20000;-78
2023/03/30 10:40:04;;;;;;;11.90;2.58;;;19.00;60.00;;;;;;6246491;23;20453;-76
2023/03/30 10:42:32;;;;;;;12.40;2.55;;;19.00;59.50;;;;;;6246906;23;20159;-78
2023/03/30 10:45:01;;;;;;;45.00;5.65;;;19.10;59.60;;;;;;6246702;23;19997;-78
2023/03/30 10:47:48;;;;;;;34.15;5.05;;;19.10;59.70;;;;;;6246716;23;20008;-77
2023/03/30 10:50:34;;;;;;;27.17;4.80;;;19.20;59.70;;;;;;6245890;23;20012;-79
2023/03/30 10:53:15;;;;;;;11.27;2.63;;;19.20;59.60;;;;;;6246304;23;20003;-78
2023/03/30 10:55:50;;;;;;;14.55;2.60;;;19.20;58.90;;;;;;6246491;23;20031;-80
2023/03/30 10:58:42;;;;;;;20.27;3.85;;;19.20;58.90;;;;;;6247707;23;20327;-81
2023/03/30 11:01:08;;;;;;;13.73;3.00;;;19.10;58.80;;;;;;6162771;23;20319;-76
2023/03/30 11:03:35;;;;;;;7.97;2.58;;;19.20;58.00;;;;;;6245441;23;20059;-78
2023/03/30 11:06:17;;;;;;;10.43;2.70;;;19.30;58.00;;;;;;6246579;23;19996;-78
2023/03/30 11:08:46;;;;;;;10.50;2.63;;;19.30;57.90;;;;;;6245695;23;20010;-78
2023/03/30 11:11:22;;;;;;;9.43;2.42;;;19.40;57.70;;;;;;6246085;23;20027;-78
2023/03/30 11:13:53;;;;;;;8.55;2.15;;;19.50;58.30;;;;;;6246442;22;20047;-81
2023/03/30 11:16:40;;;;;;;6.70;2.22;;;19.60;58.30;;;;;;6246627;23;20023;-80
2023/03/30 11:19:19;;;;;;;7.70;2.13;;;19.60;58.20;;;;;;6246332;23;20046;-81
2023/03/30 11:22:03;;;;;;;12.27;2.60;;;19.60;58.00;;;;;;6246184;23;20007;-82
2023/03/30 11:24:29;;;;;;;9.05;2.42;;;19.60;58.00;;;;;;6246736;23;20009;-81
2023/03/30 11:27:13;;;;;;;10.18;2.30;;;19.70;57.30;;;;;;6246874;23;20000;-79
2023/03/30 11:29:45;;;;;;;;;;;19.80;57.40;;;;;;6246705;23;20018;-81
2023/03/30 11:32:31;;;;;;;7.38;2.00;;;19.90;56.20;;;;;;6246952;23;19900;-81
2023/03/30 11:35:32;;;;;;;6.90;1.70;;;20.00;56.50;;;;;;6246849;23;20000;-80
2023/03/30 11:38:17;;;;;;;9.07;2.10;;;20.10;56.40;;;;;;6163571;23;20427;-79
2023/03/30 11:41:00;;;;;;;8.65;1.85;;;20.10;56.90;;;;;;6246258;23;20008;-80
2023/03/30 11:43:28;;;;;;;6.22;1.88;;;20.10;56.60;;;;;;6246534;23;20009;-80
2023/03/30 11:46:24;;;;;;;9.32;2.53;;;20.20;56.40;;;;;;6246580;23;20083;-81
2023/03/30 11:49:25;;;;;;;10.98;2.45;;;20.40;56.20;;;;;;6246161;23;20020;-80
2023/03/30 11:52:04;;;;;;;9.63;2.13;;;20.40;56.20;;;;;;6246219;23;20010;-81
2023/03/30 11:55:08;;;;;;;8.35;2.47;;;20.40;56.20;;;;;;6245917;23;20095;-80
2023/03/30 11:57:43;;;;;;;8.00;1.80;;;20.50;56.30;;;;;;6188283;23;20246;-80
2023/03/30 12:00:37;;;;;;;8.13;1.70;;;20.50;55.90;;;;;;6246462;23;20000;-80
2023/03/30 12:03:33;;;;;;;6.97;2.20;;;20.60;55.70;;;;;;6246570;23;20011;-81
2023/03/30 12:06:31;;;;;;;8.50;1.70;;;20.60;55.20;;;;;;6218913;23;20045;-81
2023/03/30 12:09:15;;;;;;;8.57;2.45;;;20.60;54.70;;;;;;6182317;23;20016;-80
2023/03/30 12:11:52;;;;;;;5.88;1.90;;;20.60;54.40;;;;;;6246221;23;20008;-81
2023/03/30 12:14:28;;;;;;;5.72;1.52;;;20.60;54.40;;;;;;6245487;22;20518;-75
2023/03/30 12:17:01;;;;;;;11.18;2.13;;;20.60;54.30;;;;;;6246264;23;20011;-80
2023/03/30 12:19:34;;;;;;;8.40;1.80;;;20.60;54.00;;;;;;6246194;23;20374;-81
2023/03/30 12:22:11;;;;;;;10.52;1.98;;;20.70;53.20;;;;;;6245880;23;20027;-81
2023/03/30 12:24:40;;;;;;;8.10;1.90;;;20.70;51.90;;;;;;6245715;23;20000;-81
2023/03/30 12:27:08;;;;;;;5.32;2.20;;;20.80;52.50;;;;;;6246489;23;20456;-81
2023/03/30 12:29:53;;;;;;;12.63;1.90;;;20.90;52.10;;;;;;6245988;23;20510;-80
2023/03/30 12:32:26;;;;;;;8.10;1.90;;;20.90;51.90;;;;;;6245733;23;20058;-81
2023/03/30 12:34:52;;;;;;;10.02;2.05;;;21.00;50.70;;;;;;6245686;23;20004;-80
2023/03/30 12:37:33;;;;;;;6.53;2.13;;;21.00;51.10;;;;;;6245850;23;19997;-80
2023/03/30 12:40:06;;;;;;;5.90;1.50;;;21.00;49.30;;;;;;6245948;23;20007;-80
2023/03/30 12:42:44;;;;;;;7.45;1.67;;;21.10;50.90;;;;;;6246260;23;20079;-81
2023/03/30 12:45:30;;;;;;;9.05;1.92;;;21.20;49.70;;;;;;6246198;23;20004;-80
2023/03/30 12:48:07;;;;;;;10.25;2.20;;;21.20;51.60;;;;;;6246001;23;20004;-81
2023/03/30 12:50:42;;;;;;;9.38;2.45;;;21.20;50.10;;;;;;6246262;23;20008;-81
2023/03/30 12:53:45;;;;;;;8.43;2.55;;;21.30;51.70;;;;;;6245600;23;20000;-79
2023/03/30 12:56:30;;;;;;;7.07;1.52;;;21.20;50.60;;;;;;6246251;23;20087;-80
2023/03/30 12:58:58;;;;;;;11.95;1.98;;;21.20;51.20;;;;;;6245871;23;20004;-81
2023/03/30 13:01:57;;;;;;;8.93;2.15;;;21.20;51.80;;;;;;6245684;23;20007;-81
2023/03/30 13:04:33;;;;;;;5.63;1.90;;;21.10;52.30;;;;;;6252381;23;20000;-81
2023/03/30 13:07:05;;;;;;;10.80;1.75;;;20.90;54.00;;;;;;6268055;23;19996;-81
2023/03/30 13:09:34;;;;;;;11.27;2.08;;;20.90;54.20;;;;;;6268701;23;20008;-80
2023/03/30 13:12:00;;;;;;;11.50;2.65;;;20.90;54.50;;;;;;6267633;22;20007;-80
2023/03/30 13:14:34;;;;;;;14.25;6.10;;;20.90;54.40;;;;;;6268696;23;20060;-78
2023/03/30 13:17:00;;;;;;;7.38;3.00;;;21.00;54.10;;;;;;6249978;23;20004;-83
2023/03/30 13:19:31;;;;;;;10.60;2.10;;;21.10;54.20;;;;;;6226573;23;20060;-82
2023/03/30 13:22:16;;;;;;;7.05;1.80;;;21.10;53.90;;;;;;6250390;23;20004;-82
2023/03/30 13:24:44;;;;;;;10.75;2.10;;;21.10;54.20;;;;;;6219128;23;20012;-81
2023/03/30 13:27:31;;;;;;;11.30;2.05;;;21.20;54.20;;;;;;6246223;23;20502;-80
2023/03/30 13:30:08;;;;;;;11.32;2.10;;;21.10;54.40;;;;;;6246361;23;20102;-80
2023/03/30 13:33:10;;;;;;;11.82;2.67;;;21.10;53.50;;;;;;6246043;23;20110;-80
2023/03/30 13:35:58;;;;;;;9.80;2.42;;;21.20;53.60;;;;;;6245851;23;20000;-81
2023/03/30 13:38:59;;;;;;;10.38;2.58;;;21.20;54.20;;;;;;6245991;23;20023;-80
2023/03/30 13:41:56;;;;;;;11.15;2.78;;;21.20;54.60;;;;;;6246020;23;20030;-81
2023/03/30 13:44:30;;;;;;;10.88;2.30;;;21.20;54.20;;;;;;6246568;23;20004;-81
2023/03/30 13:47:34;;;;;;;10.73;2.22;;;21.20;55.30;;;;;;6246086;23;20004;-81
2023/03/30 13:50:33;;;;;;;9.75;2.03;;;21.10;54.00;;;;;;6214144;23;20127;-82
2023/03/30 17:15:23;;;;;;;16.08;3.65;;;18.30;63.00;;;;;;6272663;22;20136;-82
2023/03/30 17:17:49;;;;;;;12.27;3.17;;;18.10;63.30;;;;;;6185141;23;20013;-83
2023/03/30 17:20:34;;;;;;;17.58;3.97;;;18.00;63.30;;;;;;6185960;23;20012;-82
2023/03/30 17:22:59;;;;;;;13.35;3.58;;;17.90;63.70;;;;;;6185827;23;20431;-83
2023/03/30 17:25:25;;;;;;;15.35;3.78;;;17.70;64.30;;;;;;6185845;23;20011;-83
2023/03/30 17:27:52;;;;;;;18.88;3.90;;;17.70;65.10;;;;;;6186309;23;20489;-83
2023/03/30 17:30:20;;;;;;;14.43;3.38;;;17.60;64.80;;;;;;6185681;23;20063;-84
2023/03/30 17:32:48;;;;;;;17.80;4.40;;;17.60;65.10;;;;;;6185386;23;20000;-83
2023/03/30 17:35:14;;;;;;;19.05;5.10;;;17.50;65.70;;;;;;6186214;23;20455;-83
2023/03/30 17:37:40;;;;;;;17.88;4.57;;;17.40;65.70;;;;;;6185360;23;20008;-83
2023/03/30 17:40:20;;;;;;;18.77;4.88;;;17.40;65.80;;;;;;6189509;23;20016;-82
2023/03/30 17:42:46;;;;;;;20.15;4.65;;;17.30;66.30;;;;;;6185140;23;20431;-84
2023/03/30 17:45:15;;;;;;;12.40;3.55;;;17.30;66.30;;;;;;6184965;23;20068;-82
2023/03/30 17:47:41;;;;;;;13.80;3.65;;;17.20;66.30;;;;;;6185286;23;20005;-83
2023/03/30 17:50:38;;;;;;;18.10;4.22;;;17.20;66.70;;;;;;6185125;23;20048;-84
2023/03/30 17:53:04;;;;;;;16.10;4.28;;;17.10;66.80;;;;;;6178927;23;20013;-84
2023/03/30 17:55:32;;;;;;;16.08;4.50;;;17.00;67.30;;;;;;6185314;23;20067;-82
2023/03/30 17:57:59;;;;;;;17.75;3.40;;;16.90;67.40;;;;;;6186193;23;20031;-82
2023/03/30 18:00:28;;;;;;;16.25;4.40;;;16.80;67.30;;;;;;6186957;23;20025;-83
2023/03/30 18:02:55;;;;;;;14.95;3.38;;;16.80;67.70;;;;;;6185821;23;20012;-85
2023/03/30 18:05:23;;;;;;;12.13;3.28;;;16.80;68.10;;;;;;6191918;23;20016;-82
2023/03/30 18:07:50;;;;;;;20.40;3.72;;;16.80;68.50;;;;;;6193180;23;20008;-83
2023/03/30 18:10:22;;;;;;;17.75;3.97;;;16.70;68.60;;;;;;6194094;23;20095;-81
2023/03/30 18:12:49;;;;;;;16.77;4.40;;;16.70;68.80;;;;;;6158746;23;20005;-80
2023/03/30 18:15:16;;;;;;;13.48;3.22;;;16.60;69.40;;;;;;6185562;23;20005;-80
2023/03/30 18:17:42;;;;;;;20.25;4.07;;;16.50;69.60;;;;;;6214067;23;20446;-79
2023/03/30 18:20:14;;;;;;;23.88;4.57;;;16.50;69.60;;;;;;6215582;23;20012;-81
2023/03/30 18:22:39;;;;;;;15.23;3.60;;;16.40;69.70;;;;;;6218619;23;20004;-78
2023/03/30 18:25:05;;;;;;;12.32;3.45;;;16.40;70.10;;;;;;6214430;23;20459;-78
2023/03/30 18:27:33;;;;;;;27.67;5.25;;;16.40;70.20;;;;;;6214660;23;20275;-79
2023/03/30 18:29:58;;;;;;;17.05;5.18;;;16.40;70.80;;;;;;6214787;23;20009;-78
2023/03/30 18:32:24;;;;;;;14.88;3.80;;;16.30;70.80;;;;;;6214515;23;20001;-82
2023/03/30 18:34:50;;;;;;;17.52;4.30;;;16.30;71.00;;;;;;6188624;23;20027;-80
2023/03/30 18:37:16;;;;;;;20.10;4.25;;;16.20;71.30;;;;;;6216871;23;20001;-82
2023/03/30 18:39:44;;;;;;;18.20;4.70;;;16.20;71.30;;;;;;6218114;23;20055;-85